sensor_id;sensor_type;location;lat;lon;timestamp;P1;durP1;ratioP1;P2;durP2;ratioP2
75914;SDS011;64593;51.050;13.780;2022-12-10T07:05:20;55.47;;;17.63;;
75914;SDS011;64593;51.050;13.780;2022-12-10T07:11:04;52.50;;;15.75;;
75914;SDS011;64593;51.050;13.780;2022-12-10T07:16:23;49.05;;;16.55;;
75914;SDS011;64593;51.050;13.780;2022-12-10T07:21:28;51.13;;;17.27;;
75914;SDS011;64593;51.050;13.780;2022-12-10T07:26:31;49.22;;;16.58;;
75914;SDS011;64593;51.050;13.780;2022-12-10T07:31:34;54.85;;;17.60;;
75914;SDS011;64593;51.050;13.780;2022-12-10T07:36:37;55.38;;;17.55;;
75914;SDS011;64593;51.050;13.780;2022-12-10T07:41:39;49.90;;;15.27;;
75914;SDS011;64593;51.050;13.780;2022-12-10T07:46:40;54.92;;;18.02;;
75914;SDS011;64593;51.050;13.780;2022-12-10T07:52:01;56.85;;;17.90;;
75914;SDS011;64593;51.050;13.780;2022-12-10T07:57:03;64.47;;;17.65;;
75914;SDS011;64593;51.050;13.780;2022-12-10T08:02:08;31.50;;;11.23;;
75914;SDS011;64593;51.050;13.780;2022-12-10T08:07:10;51.00;;;17.75;;
75914;SDS011;64593;51.050;13.780;2022-12-10T08:12:31;47.95;;;16.42;;
75914;SDS011;64593;51.050;13.780;2022-12-10T08:17:34;61.95;;;20.45;;
75914;SDS011;64593;51.050;13.780;2022-12-10T08:22:36;55.42;;;17.80;;
75914;SDS011;64593;51.050;13.780;2022-12-10T08:27:57;47.70;;;17.30;;
75914;SDS011;64593;51.050;13.780;2022-12-10T08:33:01;50.83;;;18.02;;
75914;SDS011;64593;51.050;13.780;2022-12-10T08:38:06;45.10;;;16.80;;
75914;SDS011;64593;51.050;13.780;2022-12-10T08:43:26;51.90;;;19.58;;
75914;SDS011;64593;51.050;13.780;2022-12-10T08:48:28;49.13;;;17.42;;
75914;SDS011;64593;51.050;13.780;2022-12-10T08:53:48;40.63;;;14.13;;
75914;SDS011;64593;51.050;13.780;2022-12-10T08:58:52;52.10;;;17.40;;
75914;SDS011;64593;51.050;13.780;2022-12-10T09:03:54;19.55;;;7.93;;
75914;SDS011;64593;51.050;13.780;2022-12-10T09:08:55;51.72;;;18.35;;
75914;SDS011;64593;51.050;13.780;2022-12-10T09:13:58;50.97;;;17.13;;
75914;SDS011;64593;51.050;13.780;2022-12-10T09:19:00;54.25;;;15.98;;
75914;SDS011;64593;51.050;13.780;2022-12-10T09:24:02;45.15;;;15.65;;
75914;SDS011;64593;51.050;13.780;2022-12-10T09:29:04;46.88;;;15.95;;
75914;SDS011;64593;51.050;13.780;2022-12-10T09:34:24;48.92;;;15.65;;
75914;SDS011;64593;51.050;13.780;2022-12-10T09:39:26;46.08;;;15.98;;
75914;SDS011;64593;51.050;13.780;2022-12-10T09:55:18;55.67;;;18.77;;
75914;SDS011;64593;51.050;13.780;2022-12-10T10:00:38;55.13;;;19.27;;
75914;SDS011;64593;51.050;13.780;2022-12-10T10:05:59;62.65;;;20.58;;
75914;SDS011;64593;51.050;13.780;2022-12-10T10:11:12;67.95;;;21.08;;
75914;SDS011;64593;51.050;13.780;2022-12-10T10:21:40;53.50;;;20.92;;
75914;SDS011;64593;51.050;13.780;2022-12-10T10:26:44;56.58;;;21.40;;
75914;SDS011;64593;51.050;13.780;2022-12-10T10:31:47;51.72;;;20.45;;
75914;SDS011;64593;51.050;13.780;2022-12-10T10:37:01;53.53;;;21.50;;
75914;SDS011;64593;51.050;13.780;2022-12-10T10:42:09;52.15;;;18.20;;
75914;SDS011;64593;51.050;13.780;2022-12-10T10:52:45;48.17;;;19.63;;
75914;SDS011;64593;51.050;13.780;2022-12-10T10:58:05;50.75;;;19.30;;
75914;SDS011;64593;51.050;13.780;2022-12-10T11:03:06;48.72;;;22.00;;
75914;SDS011;64593;51.050;13.780;2022-12-10T11:08:18;47.00;;;20.35;;
75914;SDS011;64593;51.050;13.780;2022-12-10T11:13:25;41.30;;;17.80;;
75914;SDS011;64593;51.050;13.780;2022-12-10T11:23:31;49.00;;;19.98;;
75914;SDS011;64593;51.050;13.780;2022-12-10T11:44:34;43.80;;;18.30;;
75914;SDS011;64593;51.050;13.780;2022-12-10T11:49:57;38.67;;;17.10;;
75914;SDS011;64593;51.050;13.780;2022-12-10T12:16:44;39.25;;;16.27;;
75914;SDS011;64593;51.050;13.780;2022-12-10T12:21:52;43.05;;;17.88;;
75914;SDS011;64593;51.050;13.780;2022-12-10T12:26:57;29.13;;;12.20;;
75914;SDS011;64593;51.050;13.780;2022-12-10T12:32:29;44.03;;;17.13;;
75914;SDS011;64593;51.050;13.780;2022-12-10T12:37:53;42.35;;;15.85;;
75914;SDS011;64593;51.050;13.780;2022-12-10T12:43:01;35.13;;;15.40;;
75914;SDS011;64593;51.050;13.780;2022-12-10T12:53:24;34.00;;;15.18;;
75914;SDS011;64593;51.050;13.780;2022-12-10T12:58:40;33.88;;;15.43;;
75914;SDS011;64593;51.050;13.780;2022-12-10T13:03:43;33.70;;;15.63;;
75914;SDS011;64593;51.050;13.780;2022-12-10T13:24:44;32.50;;;14.75;;
75914;SDS011;64593;51.050;13.780;2022-12-10T13:35:24;32.60;;;14.88;;
75914;SDS011;64593;51.050;13.780;2022-12-10T13:46:19;30.33;;;13.52;;
75914;SDS011;64593;51.050;13.780;2022-12-10T13:51:30;28.33;;;14.63;;
75914;SDS011;64593;51.050;13.780;2022-12-10T14:02:00;40.47;;;18.17;;
75914;SDS011;64593;51.050;13.780;2022-12-10T14:07:13;41.00;;;16.55;;
75914;SDS011;64593;51.050;13.780;2022-12-10T14:12:18;35.85;;;15.57;;
75914;SDS011;64593;51.050;13.780;2022-12-10T14:17:24;29.75;;;14.35;;
75914;SDS011;64593;51.050;13.780;2022-12-10T14:22:35;34.15;;;13.95;;
75914;SDS011;64593;51.050;13.780;2022-12-10T14:27:39;30.23;;;14.40;;
75914;SDS011;64593;51.050;13.780;2022-12-10T14:32:40;33.20;;;14.07;;
75914;SDS011;64593;51.050;13.780;2022-12-10T14:37:45;28.05;;;13.30;;
75914;SDS011;64593;51.050;13.780;2022-12-10T14:42:49;28.58;;;12.27;;
75914;SDS011;64593;51.050;13.780;2022-12-10T14:47:52;28.95;;;13.73;;
75914;SDS011;64593;51.050;13.780;2022-12-10T14:52:54;23.77;;;10.23;;
75914;SDS011;64593;51.050;13.780;2022-12-10T14:58:01;22.75;;;11.43;;
75914;SDS011;64593;51.050;13.780;2022-12-10T15:03:07;32.47;;;15.50;;
75914;SDS011;64593;51.050;13.780;2022-12-10T15:08:14;27.50;;;11.85;;
75914;SDS011;64593;51.050;13.780;2022-12-10T15:13:34;31.15;;;13.65;;
75914;SDS011;64593;51.050;13.780;2022-12-10T15:18:39;28.42;;;12.20;;
75914;SDS011;64593;51.050;13.780;2022-12-10T15:23:41;23.38;;;9.93;;
75914;SDS011;64593;51.050;13.780;2022-12-10T15:28:47;35.55;;;15.27;;
75914;SDS011;64593;51.050;13.780;2022-12-10T15:33:52;38.60;;;15.55;;
75914;SDS011;64593;51.050;13.780;2022-12-10T15:38:55;36.40;;;16.55;;
75914;SDS011;64593;51.050;13.780;2022-12-10T15:44:04;38.13;;;18.33;;
75914;SDS011;64593;51.050;13.780;2022-12-10T15:49:08;39.42;;;17.05;;
75914;SDS011;64593;51.050;13.780;2022-12-10T15:54:19;33.80;;;14.15;;
75914;SDS011;64593;51.050;13.780;2022-12-10T15:59:22;42.50;;;17.60;;
75914;SDS011;64593;51.050;13.780;2022-12-10T16:04:27;45.33;;;18.67;;
75914;SDS011;64593;51.050;13.780;2022-12-10T16:09:28;44.38;;;19.40;;
75914;SDS011;64593;51.050;13.780;2022-12-10T16:14:30;39.58;;;16.02;;
75914;SDS011;64593;51.050;13.780;2022-12-10T16:19:32;45.30;;;18.25;;
75914;SDS011;64593;51.050;13.780;2022-12-10T16:24:35;40.00;;;17.90;;
75914;SDS011;64593;51.050;13.780;2022-12-10T16:29:41;40.25;;;19.55;;
75914;SDS011;64593;51.050;13.780;2022-12-10T16:34:43;41.53;;;16.48;;
75914;SDS011;64593;51.050;13.780;2022-12-10T16:39:45;42.65;;;19.10;;
75914;SDS011;64593;51.050;13.780;2022-12-10T16:44:51;54.17;;;22.85;;
75914;SDS011;64593;51.050;13.780;2022-12-10T16:49:53;48.95;;;22.35;;
75914;SDS011;64593;51.050;13.780;2022-12-10T16:54:57;43.92;;;17.13;;
75914;SDS011;64593;51.050;13.780;2022-12-10T16:59:58;36.78;;;17.52;;
75914;SDS011;64593;51.050;13.780;2022-12-10T17:05:00;46.53;;;17.75;;
75914;SDS011;64593;51.050;13.780;2022-12-10T17:10:20;44.10;;;19.48;;
75914;SDS011;64593;51.050;13.780;2022-12-10T17:15:42;41.95;;;17.80;;
75914;SDS011;64593;51.050;13.780;2022-12-10T17:20:44;39.25;;;17.92;;
75914;SDS011;64593;51.050;13.780;2022-12-10T17:25:47;44.53;;;19.55;;
75914;SDS011;64593;51.050;13.780;2022-12-10T17:30:50;45.80;;;17.92;;
75914;SDS011;64593;51.050;13.780;2022-12-10T17:35:51;41.47;;;17.27;;
75914;SDS011;64593;51.050;13.780;2022-12-10T17:40:54;43.22;;;17.50;;
75914;SDS011;64593;51.050;13.780;2022-12-10T17:45:55;51.53;;;19.70;;
75914;SDS011;64593;51.050;13.780;2022-12-10T17:50:58;36.60;;;16.13;;
75914;SDS011;64593;51.050;13.780;2022-12-10T17:56:00;49.45;;;23.08;;
75914;SDS011;64593;51.050;13.780;2022-12-10T18:01:02;38.08;;;17.55;;
75914;SDS011;64593;51.050;13.780;2022-12-10T18:06:24;37.58;;;17.30;;
75914;SDS011;64593;51.050;13.780;2022-12-10T18:11:29;48.13;;;18.02;;
75914;SDS011;64593;51.050;13.780;2022-12-10T18:16:33;45.90;;;18.52;;
75914;SDS011;64593;51.050;13.780;2022-12-10T18:21:36;50.25;;;20.73;;
75914;SDS011;64593;51.050;13.780;2022-12-10T18:26:38;49.35;;;20.95;;
75914;SDS011;64593;51.050;13.780;2022-12-10T18:31:43;48.10;;;20.90;;
75914;SDS011;64593;51.050;13.780;2022-12-10T18:36:46;52.60;;;20.60;;
75914;SDS011;64593;51.050;13.780;2022-12-10T18:41:49;48.83;;;20.25;;
75914;SDS011;64593;51.050;13.780;2022-12-10T18:47:09;50.95;;;20.77;;
75914;SDS011;64593;51.050;13.780;2022-12-10T18:52:13;51.13;;;22.05;;
75914;SDS011;64593;51.050;13.780;2022-12-10T18:57:19;47.35;;;19.20;;
75914;SDS011;64593;51.050;13.780;2022-12-10T19:02:42;47.25;;;19.33;;
75914;SDS011;64593;51.050;13.780;2022-12-10T19:07:46;39.97;;;15.93;;
75914;SDS011;64593;51.050;13.780;2022-12-10T19:12:52;46.55;;;18.77;;
75914;SDS011;64593;51.050;13.780;2022-12-10T19:17:54;47.17;;;19.30;;
75914;SDS011;64593;51.050;13.780;2022-12-10T19:22:59;43.53;;;20.13;;
75914;SDS011;64593;51.050;13.780;2022-12-10T19:28:06;46.47;;;18.52;;
75914;SDS011;64593;51.050;13.780;2022-12-10T19:33:40;52.92;;;21.10;;
75914;SDS011;64593;51.050;13.780;2022-12-10T19:38:50;49.22;;;21.35;;
75914;SDS011;64593;51.050;13.780;2022-12-10T19:43:59;43.97;;;20.50;;
75914;SDS011;64593;51.050;13.780;2022-12-10T19:49:08;47.28;;;21.10;;
75914;SDS011;64593;51.050;13.780;2022-12-10T19:54:12;49.13;;;19.95;;
75914;SDS011;64593;51.050;13.780;2022-12-10T19:59:15;51.88;;;21.08;;
75914;SDS011;64593;51.050;13.780;2022-12-10T20:04:26;42.83;;;18.30;;
75914;SDS011;64593;51.050;13.780;2022-12-10T20:09:37;39.30;;;19.67;;
75914;SDS011;64593;51.050;13.780;2022-12-10T20:14:51;41.85;;;16.80;;
75914;SDS011;64593;51.050;13.780;2022-12-10T20:19:56;32.40;;;13.93;;
75914;SDS011;64593;51.050;13.780;2022-12-10T20:25:01;40.17;;;16.27;;
75914;SDS011;64593;51.050;13.780;2022-12-10T20:30:04;32.53;;;14.20;;
75914;SDS011;64593;51.050;13.780;2022-12-10T20:35:07;35.88;;;14.13;;
75914;SDS011;64593;51.050;13.780;2022-12-10T20:40:19;33.63;;;15.82;;
75914;SDS011;64593;51.050;13.780;2022-12-10T20:45:33;36.92;;;15.48;;
75914;SDS011;64593;51.050;13.780;2022-12-10T20:50:36;37.35;;;16.30;;
75914;SDS011;64593;51.050;13.780;2022-12-10T20:55:47;38.90;;;18.08;;
75914;SDS011;64593;51.050;13.780;2022-12-10T21:00:52;30.80;;;14.82;;
75914;SDS011;64593;51.050;13.780;2022-12-10T21:06:16;43.47;;;18.00;;
75914;SDS011;64593;51.050;13.780;2022-12-10T21:11:39;45.80;;;18.60;;
75914;SDS011;64593;51.050;13.780;2022-12-10T21:16:41;53.42;;;21.90;;
75914;SDS011;64593;51.050;13.780;2022-12-10T21:21:43;46.97;;;18.40;;
75914;SDS011;64593;51.050;13.780;2022-12-10T21:26:46;45.03;;;19.95;;
75914;SDS011;64593;51.050;13.780;2022-12-10T21:31:48;52.17;;;20.00;;
75914;SDS011;64593;51.050;13.780;2022-12-10T21:42:04;47.75;;;22.58;;
75914;SDS011;64593;51.050;13.780;2022-12-10T21:47:24;43.22;;;18.33;;
75914;SDS011;64593;51.050;13.780;2022-12-10T21:52:27;43.75;;;19.48;;
75914;SDS011;64593;51.050;13.780;2022-12-10T21:57:39;43.65;;;16.73;;
75914;SDS011;64593;51.050;13.780;2022-12-10T22:02:45;41.75;;;18.05;;
75914;SDS011;64593;51.050;13.780;2022-12-10T22:07:49;48.30;;;21.27;;
75914;SDS011;64593;51.050;13.780;2022-12-10T22:12:51;43.35;;;19.15;;
75914;SDS011;64593;51.050;13.780;2022-12-10T22:18:14;36.33;;;15.50;;
75914;SDS011;64593;51.050;13.780;2022-12-10T22:28:18;47.10;;;19.17;;
75914;SDS011;64593;51.050;13.780;2022-12-10T22:33:42;46.30;;;18.50;;
75914;SDS011;64593;51.050;13.780;2022-12-10T22:38:48;47.30;;;19.75;;
75914;SDS011;64593;51.050;13.780;2022-12-10T22:43:51;44.67;;;18.67;;
75914;SDS011;64593;51.050;13.780;2022-12-10T22:48:53;44.35;;;18.95;;
75914;SDS011;64593;51.050;13.780;2022-12-10T22:54:16;50.35;;;19.52;;
75914;SDS011;64593;51.050;13.780;2022-12-10T22:59:17;46.28;;;18.48;;
